sensor_id;sensor_type;location;lat;lon;timestamp;temperature;humidity
13115;DHT22;6623;52.120;8.660;2024-03-07T00:02:17;19.90;43.30
13115;DHT22;6623;52.120;8.660;2024-03-07T00:04:43;19.90;43.30
13115;DHT22;6623;52.120;8.660;2024-03-07T00:07:09;19.90;43.30
13115;DHT22;6623;52.120;8.660;2024-03-07T00:09:35;20.00;43.40
13115;DHT22;6623;52.120;8.660;2024-03-07T00:12:04;19.90;43.30
13115;DHT22;6623;52.120;8.660;2024-03-07T00:14:31;19.90;43.30
13115;DHT22;6623;52.120;8.660;2024-03-07T00:16:57;19.90;43.30
13115;DHT22;6623;52.120;8.660;2024-03-07T00:19:24;19.90;43.30
13115;DHT22;6623;52.120;8.660;2024-03-07T00:21:52;19.90;43.30
13115;DHT22;6623;52.120;8.660;2024-03-07T00:24:19;19.90;43.30
13115;DHT22;6623;52.120;8.660;2024-03-07T00:26:45;19.90;43.30
13115;DHT22;6623;52.120;8.660;2024-03-07T00:29:11;19.90;43.30
13115;DHT22;6623;52.120;8.660;2024-03-07T00:31:36;19.90;43.20
13115;DHT22;6623;52.120;8.660;2024-03-07T00:34:02;19.90;43.30
13115;DHT22;6623;52.120;8.660;2024-03-07T00:36:27;19.90;43.20
13115;DHT22;6623;52.120;8.660;2024-03-07T00:38:53;19.90;43.20
13115;DHT22;6623;52.120;8.660;2024-03-07T00:41:19;19.90;43.20
13115;DHT22;6623;52.120;8.660;2024-03-07T00:43:47;20.00;43.20
13115;DHT22;6623;52.120;8.660;2024-03-07T00:46:12;20.00;43.20
13115;DHT22;6623;52.120;8.660;2024-03-07T00:48:38;20.00;43.20
13115;DHT22;6623;52.120;8.660;2024-03-07T00:51:04;20.00;43.20
13115;DHT22;6623;52.120;8.660;2024-03-07T00:53:30;20.00;43.20
13115;DHT22;6623;52.120;8.660;2024-03-07T00:55:56;20.00;43.20
13115;DHT22;6623;52.120;8.660;2024-03-07T00:58:22;20.00;43.20
13115;DHT22;6623;52.120;8.660;2024-03-07T01:00:48;20.00;43.20
13115;DHT22;6623;52.120;8.660;2024-03-07T01:03:13;20.00;43.20
13115;DHT22;6623;52.120;8.660;2024-03-07T01:05:42;20.00;43.20
13115;DHT22;6623;52.120;8.660;2024-03-07T01:08:07;20.00;43.20
13115;DHT22;6623;52.120;8.660;2024-03-07T01:10:33;20.00;43.20
13115;DHT22;6623;52.120;8.660;2024-03-07T01:12:59;20.00;43.80
13115;DHT22;6623;52.120;8.660;2024-03-07T01:15:28;20.00;43.10
13115;DHT22;6623;52.120;8.660;2024-03-07T01:17:53;20.00;43.10
13115;DHT22;6623;52.120;8.660;2024-03-07T01:20:19;20.00;43.10
13115;DHT22;6623;52.120;8.660;2024-03-07T01:22:44;20.00;43.10
13115;DHT22;6623;52.120;8.660;2024-03-07T01:25:10;20.00;43.10
13115;DHT22;6623;52.120;8.660;2024-03-07T01:27:38;20.00;43.10
13115;DHT22;6623;52.120;8.660;2024-03-07T01:30:04;20.00;43.00
13115;DHT22;6623;52.120;8.660;2024-03-07T01:32:33;20.00;43.00
13115;DHT22;6623;52.120;8.660;2024-03-07T01:34:59;20.00;43.00
13115;DHT22;6623;52.120;8.660;2024-03-07T01:37:24;20.00;43.00
13115;DHT22;6623;52.120;8.660;2024-03-07T01:39:49;20.00;43.00
13115;DHT22;6623;52.120;8.660;2024-03-07T01:42:15;20.00;43.00
13115;DHT22;6623;52.120;8.660;2024-03-07T01:44:40;20.00;43.00
13115;DHT22;6623;52.120;8.660;2024-03-07T01:47:07;20.00;43.00
13115;DHT22;6623;52.120;8.660;2024-03-07T01:49:33;20.00;42.90
13115;DHT22;6623;52.120;8.660;2024-03-07T01:51:58;20.00;42.90
13115;DHT22;6623;52.120;8.660;2024-03-07T01:54:25;20.00;42.90
13115;DHT22;6623;52.120;8.660;2024-03-07T01:56:52;20.00;42.90
13115;DHT22;6623;52.120;8.660;2024-03-07T01:59:18;20.00;42.90
13115;DHT22;6623;52.120;8.660;2024-03-07T02:01:46;20.00;42.90
13115;DHT22;6623;52.120;8.660;2024-03-07T02:04:12;20.00;42.90
13115;DHT22;6623;52.120;8.660;2024-03-07T02:06:38;20.00;42.80
13115;DHT22;6623;52.120;8.660;2024-03-07T02:09:03;20.00;42.90
13115;DHT22;6623;52.120;8.660;2024-03-07T02:11:31;20.00;42.80
13115;DHT22;6623;52.120;8.660;2024-03-07T02:13:56;20.00;42.80
13115;DHT22;6623;52.120;8.660;2024-03-07T02:16:22;20.00;42.80
13115;DHT22;6623;52.120;8.660;2024-03-07T02:18:48;20.00;42.80
13115;DHT22;6623;52.120;8.660;2024-03-07T02:21:15;20.00;42.80
13115;DHT22;6623;52.120;8.660;2024-03-07T02:23:41;20.00;42.80
13115;DHT22;6623;52.120;8.660;2024-03-07T02:26:06;20.00;42.80
13115;DHT22;6623;52.120;8.660;2024-03-07T02:28:33;20.00;42.80
13115;DHT22;6623;52.120;8.660;2024-03-07T02:31:00;20.00;42.80
13115;DHT22;6623;52.120;8.660;2024-03-07T02:33:26;20.00;42.80
13115;DHT22;6623;52.120;8.660;2024-03-07T02:35:51;20.00;42.70
13115;DHT22;6623;52.120;8.660;2024-03-07T02:38:17;20.00;42.70
13115;DHT22;6623;52.120;8.660;2024-03-07T02:40:43;20.00;42.70
13115;DHT22;6623;52.120;8.660;2024-03-07T02:43:08;20.00;42.70
13115;DHT22;6623;52.120;8.660;2024-03-07T02:45:34;20.00;42.70
13115;DHT22;6623;52.120;8.660;2024-03-07T02:47:59;20.00;42.70
13115;DHT22;6623;52.120;8.660;2024-03-07T02:50:25;20.00;42.70
13115;DHT22;6623;52.120;8.660;2024-03-07T02:52:50;20.00;42.70
13115;DHT22;6623;52.120;8.660;2024-03-07T02:55:17;20.00;42.70
13115;DHT22;6623;52.120;8.660;2024-03-07T02:57:44;20.00;42.70
13115;DHT22;6623;52.120;8.660;2024-03-07T03:00:11;20.00;42.70
13115;DHT22;6623;52.120;8.660;2024-03-07T03:02:47;20.10;42.70
13115;DHT22;6623;52.120;8.660;2024-03-07T03:05:13;20.10;42.60
13115;DHT22;6623;52.120;8.660;2024-03-07T03:07:39;20.20;42.60
13115;DHT22;6623;52.120;8.660;2024-03-07T03:10:06;20.20;42.50
13115;DHT22;6623;52.120;8.660;2024-03-07T03:12:36;20.30;42.40
13115;DHT22;6623;52.120;8.660;2024-03-07T03:15:02;20.40;42.30
13115;DHT22;6623;52.120;8.660;2024-03-07T03:17:30;20.50;42.30
13115;DHT22;6623;52.120;8.660;2024-03-07T03:19:56;20.50;42.10
13115;DHT22;6623;52.120;8.660;2024-03-07T03:22:22;20.60;42.00
13115;DHT22;6623;52.120;8.660;2024-03-07T03:24:47;20.70;42.00
13115;DHT22;6623;52.120;8.660;2024-03-07T03:27:13;20.70;41.80
13115;DHT22;6623;52.120;8.660;2024-03-07T03:29:39;20.80;41.70
13115;DHT22;6623;52.120;8.660;2024-03-07T03:32:06;20.80;41.60
13115;DHT22;6623;52.120;8.660;2024-03-07T03:34:33;20.90;41.50
13115;DHT22;6623;52.120;8.660;2024-03-07T03:36:59;21.00;41.50
13115;DHT22;6623;52.120;8.660;2024-03-07T03:39:24;21.00;41.30
13115;DHT22;6623;52.120;8.660;2024-03-07T03:41:52;21.10;41.30
13115;DHT22;6623;52.120;8.660;2024-03-07T03:44:18;21.20;41.20
13115;DHT22;6623;52.120;8.660;2024-03-07T03:46:43;21.20;41.10
13115;DHT22;6623;52.120;8.660;2024-03-07T03:49:09;21.30;41.00
13115;DHT22;6623;52.120;8.660;2024-03-07T03:51:35;21.30;40.90
13115;DHT22;6623;52.120;8.660;2024-03-07T03:54:01;21.30;40.80
13115;DHT22;6623;52.120;8.660;2024-03-07T03:56:27;21.40;40.70
13115;DHT22;6623;52.120;8.660;2024-03-07T03:58:52;21.30;40.60
13115;DHT22;6623;52.120;8.660;2024-03-07T04:01:18;21.30;40.60
13115;DHT22;6623;52.120;8.660;2024-03-07T04:03:44;21.30;40.60
13115;DHT22;6623;52.120;8.660;2024-03-07T04:06:12;21.30;40.60
13115;DHT22;6623;52.120;8.660;2024-03-07T04:08:37;21.20;40.60
13115;DHT22;6623;52.120;8.660;2024-03-07T04:11:06;21.20;40.60
13115;DHT22;6623;52.120;8.660;2024-03-07T04:13:35;21.10;40.60
13115;DHT22;6623;52.120;8.660;2024-03-07T04:16:00;21.10;40.70
13115;DHT22;6623;52.120;8.660;2024-03-07T04:18:26;21.00;40.70
13115;DHT22;6623;52.120;8.660;2024-03-07T04:20:52;21.00;40.80
13115;DHT22;6623;52.120;8.660;2024-03-07T04:23:17;20.90;40.80
13115;DHT22;6623;52.120;8.660;2024-03-07T04:25:43;20.90;40.90
13115;DHT22;6623;52.120;8.660;2024-03-07T04:28:09;20.80;40.90
13115;DHT22;6623;52.120;8.660;2024-03-07T04:30:35;20.80;40.90
13115;DHT22;6623;52.120;8.660;2024-03-07T04:33:01;20.80;41.00
13115;DHT22;6623;52.120;8.660;2024-03-07T04:35:26;20.70;41.00
13115;DHT22;6623;52.120;8.660;2024-03-07T04:37:52;20.70;41.00
13115;DHT22;6623;52.120;8.660;2024-03-07T04:40:18;20.60;41.10
13115;DHT22;6623;52.120;8.660;2024-03-07T04:42:45;20.60;41.10
13115;DHT22;6623;52.120;8.660;2024-03-07T04:45:12;20.60;41.10
13115;DHT22;6623;52.120;8.660;2024-03-07T04:47:39;20.50;41.10
13115;DHT22;6623;52.120;8.660;2024-03-07T04:50:05;20.50;41.20
13115;DHT22;6623;52.120;8.660;2024-03-07T04:52:31;20.50;41.20
13115;DHT22;6623;52.120;8.660;2024-03-07T04:54:56;20.50;41.30
13115;DHT22;6623;52.120;8.660;2024-03-07T04:57:22;20.50;41.40
13115;DHT22;6623;52.120;8.660;2024-03-07T04:59:47;20.50;41.40
13115;DHT22;6623;52.120;8.660;2024-03-07T05:02:13;20.50;41.40
13115;DHT22;6623;52.120;8.660;2024-03-07T05:04:39;20.50;41.40
13115;DHT22;6623;52.120;8.660;2024-03-07T05:07:04;20.50;41.30
13115;DHT22;6623;52.120;8.660;2024-03-07T05:09:31;20.50;41.30
13115;DHT22;6623;52.120;8.660;2024-03-07T05:11:58;20.60;41.30
13115;DHT22;6623;52.120;8.660;2024-03-07T05:14:24;20.60;41.20
13115;DHT22;6623;52.120;8.660;2024-03-07T05:16:53;20.70;41.20
13115;DHT22;6623;52.120;8.660;2024-03-07T05:19:34;20.70;41.10
13115;DHT22;6623;52.120;8.660;2024-03-07T05:22:01;20.80;41.10
13115;DHT22;6623;52.120;8.660;2024-03-07T05:24:28;20.80;41.00
13115;DHT22;6623;52.120;8.660;2024-03-07T05:26:53;20.90;41.00
13115;DHT22;6623;52.120;8.660;2024-03-07T05:29:19;21.00;40.80
13115;DHT22;6623;52.120;8.660;2024-03-07T05:31:45;21.00;40.80
13115;DHT22;6623;52.120;8.660;2024-03-07T05:34:17;21.10;40.70
13115;DHT22;6623;52.120;8.660;2024-03-07T05:36:48;21.10;40.50
13115;DHT22;6623;52.120;8.660;2024-03-07T05:39:16;21.20;40.60
13115;DHT22;6623;52.120;8.660;2024-03-07T05:41:43;21.20;40.60
13115;DHT22;6623;52.120;8.660;2024-03-07T05:44:11;21.20;40.50
13115;DHT22;6623;52.120;8.660;2024-03-07T05:46:37;21.30;40.40
13115;DHT22;6623;52.120;8.660;2024-03-07T05:49:07;21.30;40.30
13115;DHT22;6623;52.120;8.660;2024-03-07T05:51:32;21.40;40.20
13115;DHT22;6623;52.120;8.660;2024-03-07T05:53:58;21.40;40.10
13115;DHT22;6623;52.120;8.660;2024-03-07T05:56:23;21.40;40.10
13115;DHT22;6623;52.120;8.660;2024-03-07T05:58:49;21.40;40.10
13115;DHT22;6623;52.120;8.660;2024-03-07T06:01:16;21.40;40.00
13115;DHT22;6623;52.120;8.660;2024-03-07T06:03:43;21.40;40.10
13115;DHT22;6623;52.120;8.660;2024-03-07T06:06:09;21.30;40.00
13115;DHT22;6623;52.120;8.660;2024-03-07T06:08:37;21.30;40.10
13115;DHT22;6623;52.120;8.660;2024-03-07T06:11:03;21.20;40.10
13115;DHT22;6623;52.120;8.660;2024-03-07T06:13:28;21.20;40.10
13115;DHT22;6623;52.120;8.660;2024-03-07T06:15:53;21.20;40.20
13115;DHT22;6623;52.120;8.660;2024-03-07T06:18:19;21.10;40.20
13115;DHT22;6623;52.120;8.660;2024-03-07T06:20:45;21.00;40.20
13115;DHT22;6623;52.120;8.660;2024-03-07T06:23:10;21.00;40.30
13115;DHT22;6623;52.120;8.660;2024-03-07T06:25:41;21.00;40.40
13115;DHT22;6623;52.120;8.660;2024-03-07T06:28:16;20.90;40.40
13115;DHT22;6623;52.120;8.660;2024-03-07T06:30:44;20.90;40.40
13115;DHT22;6623;52.120;8.660;2024-03-07T06:33:13;20.80;40.40
13115;DHT22;6623;52.120;8.660;2024-03-07T06:35:40;20.80;40.50
13115;DHT22;6623;52.120;8.660;2024-03-07T06:38:07;20.70;40.50
13115;DHT22;6623;52.120;8.660;2024-03-07T06:40:39;20.70;40.60
13115;DHT22;6623;52.120;8.660;2024-03-07T06:43:05;20.60;40.60
13115;DHT22;6623;52.120;8.660;2024-03-07T06:45:38;20.60;40.70
13115;DHT22;6623;52.120;8.660;2024-03-07T06:48:08;20.60;40.70
13115;DHT22;6623;52.120;8.660;2024-03-07T06:50:34;20.50;40.80
13115;DHT22;6623;52.120;8.660;2024-03-07T06:53:00;20.50;41.50
13115;DHT22;6623;52.120;8.660;2024-03-07T06:55:26;20.50;40.90
13115;DHT22;6623;52.120;8.660;2024-03-07T06:57:52;20.50;41.60
13115;DHT22;6623;52.120;8.660;2024-03-07T07:00:19;20.50;41.00
13115;DHT22;6623;52.120;8.660;2024-03-07T07:02:46;20.50;41.00
13115;DHT22;6623;52.120;8.660;2024-03-07T07:05:12;20.50;41.00
13115;DHT22;6623;52.120;8.660;2024-03-07T07:07:41;20.50;40.90
13115;DHT22;6623;52.120;8.660;2024-03-07T07:10:10;20.50;40.90
13115;DHT22;6623;52.120;8.660;2024-03-07T07:12:44;20.60;40.90
13115;DHT22;6623;52.120;8.660;2024-03-07T07:15:11;20.60;40.80
13115;DHT22;6623;52.120;8.660;2024-03-07T07:17:38;20.70;40.70
13115;DHT22;6623;52.120;8.660;2024-03-07T07:20:04;20.70;40.70
13115;DHT22;6623;52.120;8.660;2024-03-07T07:22:36;20.70;40.60
13115;DHT22;6623;52.120;8.660;2024-03-07T07:25:02;20.80;40.50
13115;DHT22;6623;52.120;8.660;2024-03-07T07:27:30;20.80;40.50
13115;DHT22;6623;52.120;8.660;2024-03-07T07:29:56;20.90;40.40
13115;DHT22;6623;52.120;8.660;2024-03-07T07:32:23;20.90;40.40
13115;DHT22;6623;52.120;8.660;2024-03-07T07:34:49;21.00;40.30
13115;DHT22;6623;52.120;8.660;2024-03-07T07:37:14;21.00;40.20
13115;DHT22;6623;52.120;8.660;2024-03-07T07:39:40;21.10;40.20
13115;DHT22;6623;52.120;8.660;2024-03-07T07:42:05;21.10;40.10
13115;DHT22;6623;52.120;8.660;2024-03-07T07:44:31;21.20;40.10
13115;DHT22;6623;52.120;8.660;2024-03-07T07:46:57;21.20;40.00
13115;DHT22;6623;52.120;8.660;2024-03-07T07:49:22;21.30;40.00
13115;DHT22;6623;52.120;8.660;2024-03-07T07:51:48;21.30;39.80
13115;DHT22;6623;52.120;8.660;2024-03-07T07:54:16;21.30;39.80
13115;DHT22;6623;52.120;8.660;2024-03-07T07:56:43;21.30;39.70
13115;DHT22;6623;52.120;8.660;2024-03-07T07:59:09;21.30;39.70
13115;DHT22;6623;52.120;8.660;2024-03-07T08:01:34;21.30;39.70
13115;DHT22;6623;52.120;8.660;2024-03-07T08:04:00;21.30;39.70
13115;DHT22;6623;52.120;8.660;2024-03-07T08:06:26;21.20;39.70
13115;DHT22;6623;52.120;8.660;2024-03-07T08:08:52;21.20;39.70
13115;DHT22;6623;52.120;8.660;2024-03-07T08:11:17;21.20;39.80
13115;DHT22;6623;52.120;8.660;2024-03-07T08:13:43;21.10;39.80
13115;DHT22;6623;52.120;8.660;2024-03-07T08:16:10;21.00;39.80
13115;DHT22;6623;52.120;8.660;2024-03-07T08:18:36;21.00;39.90
13115;DHT22;6623;52.120;8.660;2024-03-07T08:21:02;20.90;39.90
13115;DHT22;6623;52.120;8.660;2024-03-07T08:23:27;20.90;40.00
13115;DHT22;6623;52.120;8.660;2024-03-07T08:25:54;20.80;40.10
13115;DHT22;6623;52.120;8.660;2024-03-07T08:28:20;20.80;40.10
13115;DHT22;6623;52.120;8.660;2024-03-07T08:30:45;20.70;40.10
13115;DHT22;6623;52.120;8.660;2024-03-07T08:33:11;20.70;40.30
13115;DHT22;6623;52.120;8.660;2024-03-07T08:35:38;20.60;40.20
13115;DHT22;6623;52.120;8.660;2024-03-07T08:38:03;20.60;40.20
13115;DHT22;6623;52.120;8.660;2024-03-07T08:40:30;20.50;40.80
13115;DHT22;6623;52.120;8.660;2024-03-07T08:42:58;20.50;40.30
13115;DHT22;6623;52.120;8.660;2024-03-07T08:45:25;20.50;40.40
13115;DHT22;6623;52.120;8.660;2024-03-07T08:47:52;20.40;40.50
13115;DHT22;6623;52.120;8.660;2024-03-07T08:50:19;20.40;40.50
13115;DHT22;6623;52.120;8.660;2024-03-07T08:52:46;20.40;40.60
13115;DHT22;6623;52.120;8.660;2024-03-07T08:55:16;20.40;40.60
13115;DHT22;6623;52.120;8.660;2024-03-07T08:57:43;20.40;40.70
13115;DHT22;6623;52.120;8.660;2024-03-07T09:00:12;20.30;40.60
13115;DHT22;6623;52.120;8.660;2024-03-07T09:02:48;20.40;40.70
13115;DHT22;6623;52.120;8.660;2024-03-07T09:05:15;20.40;40.70
13115;DHT22;6623;52.120;8.660;2024-03-07T09:07:41;20.40;40.60
13115;DHT22;6623;52.120;8.660;2024-03-07T09:10:07;20.50;40.70
13115;DHT22;6623;52.120;8.660;2024-03-07T09:12:33;20.50;40.60
13115;DHT22;6623;52.120;8.660;2024-03-07T09:14:58;20.50;40.50
13115;DHT22;6623;52.120;8.660;2024-03-07T09:17:24;20.60;40.50
13115;DHT22;6623;52.120;8.660;2024-03-07T09:19:49;20.60;40.40
13115;DHT22;6623;52.120;8.660;2024-03-07T09:22:15;20.70;40.40
13115;DHT22;6623;52.120;8.660;2024-03-07T09:24:41;20.70;40.30
13115;DHT22;6623;52.120;8.660;2024-03-07T09:27:06;20.80;40.40
13115;DHT22;6623;52.120;8.660;2024-03-07T09:29:32;20.80;40.30
13115;DHT22;6623;52.120;8.660;2024-03-07T09:31:57;20.90;40.20
13115;DHT22;6623;52.120;8.660;2024-03-07T09:34:24;20.90;40.10
13115;DHT22;6623;52.120;8.660;2024-03-07T09:36:51;21.00;40.10
13115;DHT22;6623;52.120;8.660;2024-03-07T09:39:17;21.00;40.00
13115;DHT22;6623;52.120;8.660;2024-03-07T09:41:44;21.10;40.00
13115;DHT22;6623;52.120;8.660;2024-03-07T09:44:10;21.10;39.90
13115;DHT22;6623;52.120;8.660;2024-03-07T09:46:38;21.20;39.80
13115;DHT22;6623;52.120;8.660;2024-03-07T09:49:05;21.20;39.70
13115;DHT22;6623;52.120;8.660;2024-03-07T09:51:35;21.30;39.80
13115;DHT22;6623;52.120;8.660;2024-03-07T09:54:01;21.30;39.60
13115;DHT22;6623;52.120;8.660;2024-03-07T09:56:28;21.30;39.60
13115;DHT22;6623;52.120;8.660;2024-03-07T09:58:58;21.30;39.60
13115;DHT22;6623;52.120;8.660;2024-03-07T10:01:27;21.20;39.60
13115;DHT22;6623;52.120;8.660;2024-03-07T10:03:58;21.20;39.60
13115;DHT22;6623;52.120;8.660;2024-03-07T10:06:24;21.20;39.60
13115;DHT22;6623;52.120;8.660;2024-03-07T10:08:52;21.10;39.60
13115;DHT22;6623;52.120;8.660;2024-03-07T10:11:18;21.10;39.70
13115;DHT22;6623;52.120;8.660;2024-03-07T10:13:43;21.00;39.70
13115;DHT22;6623;52.120;8.660;2024-03-07T10:16:15;20.90;39.80
13115;DHT22;6623;52.120;8.660;2024-03-07T10:18:42;20.90;39.80
13115;DHT22;6623;52.120;8.660;2024-03-07T10:21:08;20.80;39.90
13115;DHT22;6623;52.120;8.660;2024-03-07T10:23:33;20.80;40.00
13115;DHT22;6623;52.120;8.660;2024-03-07T10:26:00;20.70;40.00
13115;DHT22;6623;52.120;8.660;2024-03-07T10:28:27;20.70;40.00
13115;DHT22;6623;52.120;8.660;2024-03-07T10:30:53;20.60;40.00
13115;DHT22;6623;52.120;8.660;2024-03-07T10:33:18;20.60;40.20
13115;DHT22;6623;52.120;8.660;2024-03-07T10:35:49;20.50;40.20
13115;DHT22;6623;52.120;8.660;2024-03-07T10:38:15;20.50;40.20
13115;DHT22;6623;52.120;8.660;2024-03-07T10:40:40;20.50;40.20
13115;DHT22;6623;52.120;8.660;2024-03-07T10:43:10;20.40;40.30
13115;DHT22;6623;52.120;8.660;2024-03-07T10:45:47;20.40;40.40
13115;DHT22;6623;52.120;8.660;2024-03-07T10:48:13;20.40;40.50
13115;DHT22;6623;52.120;8.660;2024-03-07T10:53:52;20.30;40.50
13115;DHT22;6623;52.120;8.660;2024-03-07T10:59:16;20.20;40.70
13115;DHT22;6623;52.120;8.660;2024-03-07T11:04:30;20.30;40.70
13115;DHT22;6623;52.120;8.660;2024-03-07T11:06:56;20.30;40.70
13115;DHT22;6623;52.120;8.660;2024-03-07T11:09:25;20.40;40.70
13115;DHT22;6623;52.120;8.660;2024-03-07T11:11:55;20.40;40.70
13115;DHT22;6623;52.120;8.660;2024-03-07T11:14:22;20.50;40.70
13115;DHT22;6623;52.120;8.660;2024-03-07T11:16:48;20.50;40.60
13115;DHT22;6623;52.120;8.660;2024-03-07T11:21:51;20.60;40.50
13115;DHT22;6623;52.120;8.660;2024-03-07T11:24:30;20.70;40.40
13115;DHT22;6623;52.120;8.660;2024-03-07T11:27:03;20.80;40.40
13115;DHT22;6623;52.120;8.660;2024-03-07T11:29:39;20.80;40.40
13115;DHT22;6623;52.120;8.660;2024-03-07T11:32:13;20.80;40.30
13115;DHT22;6623;52.120;8.660;2024-03-07T11:34:40;20.90;40.20
13115;DHT22;6623;52.120;8.660;2024-03-07T11:37:09;20.90;40.20
13115;DHT22;6623;52.120;8.660;2024-03-07T11:39:46;21.00;40.10
13115;DHT22;6623;52.120;8.660;2024-03-07T11:42:26;21.10;40.00
13115;DHT22;6623;52.120;8.660;2024-03-07T11:44:52;21.10;39.90
13115;DHT22;6623;52.120;8.660;2024-03-07T11:47:34;21.10;39.90
13115;DHT22;6623;52.120;8.660;2024-03-07T11:50:01;21.20;39.80
13115;DHT22;6623;52.120;8.660;2024-03-07T11:52:27;21.20;39.80
13115;DHT22;6623;52.120;8.660;2024-03-07T11:54:53;21.30;39.80
13115;DHT22;6623;52.120;8.660;2024-03-07T11:57:22;21.30;40.30
13115;DHT22;6623;52.120;8.660;2024-03-07T11:59:58;21.20;39.60
13115;DHT22;6623;52.120;8.660;2024-03-07T12:02:27;21.20;39.60
13115;DHT22;6623;52.120;8.660;2024-03-07T12:04:52;21.20;39.60
13115;DHT22;6623;52.120;8.660;2024-03-07T12:07:18;21.20;39.70
13115;DHT22;6623;52.120;8.660;2024-03-07T12:09:46;21.10;39.80
13115;DHT22;6623;52.120;8.660;2024-03-07T12:12:16;21.10;39.80
13115;DHT22;6623;52.120;8.660;2024-03-07T12:14:42;21.00;39.80
13115;DHT22;6623;52.120;8.660;2024-03-07T12:17:08;21.00;39.90
13115;DHT22;6623;52.120;8.660;2024-03-07T12:19:34;20.90;40.00
13115;DHT22;6623;52.120;8.660;2024-03-07T12:22:03;20.80;40.00
13115;DHT22;6623;52.120;8.660;2024-03-07T12:24:29;20.80;40.10
13115;DHT22;6623;52.120;8.660;2024-03-07T12:27:11;20.80;40.20
13115;DHT22;6623;52.120;8.660;2024-03-07T12:29:38;20.70;40.20
13115;DHT22;6623;52.120;8.660;2024-03-07T12:32:07;20.60;40.20
13115;DHT22;6623;52.120;8.660;2024-03-07T12:34:34;20.60;40.20
13115;DHT22;6623;52.120;8.660;2024-03-07T12:37:03;20.50;40.20
13115;DHT22;6623;52.120;8.660;2024-03-07T12:39:32;20.50;40.30
13115;DHT22;6623;52.120;8.660;2024-03-07T12:42:03;20.50;40.40
13115;DHT22;6623;52.120;8.660;2024-03-07T12:44:41;20.40;40.50
13115;DHT22;6623;52.120;8.660;2024-03-07T12:47:17;20.40;40.60
13115;DHT22;6623;52.120;8.660;2024-03-07T12:49:43;20.30;40.50
13115;DHT22;6623;52.120;8.660;2024-03-07T12:52:10;20.30;40.60
13115;DHT22;6623;52.120;8.660;2024-03-07T12:54:36;20.30;40.70
13115;DHT22;6623;52.120;8.660;2024-03-07T12:57:09;20.30;40.80
13115;DHT22;6623;52.120;8.660;2024-03-07T12:59:37;20.20;40.80
13115;DHT22;6623;52.120;8.660;2024-03-07T13:02:04;20.30;40.80
13115;DHT22;6623;52.120;8.660;2024-03-07T13:04:32;20.30;40.80
13115;DHT22;6623;52.120;8.660;2024-03-07T13:06:57;20.30;40.80
13115;DHT22;6623;52.120;8.660;2024-03-07T13:09:25;20.40;40.80
13115;DHT22;6623;52.120;8.660;2024-03-07T13:11:53;20.40;40.80
13115;DHT22;6623;52.120;8.660;2024-03-07T13:14:19;20.50;40.80
13115;DHT22;6623;52.120;8.660;2024-03-07T13:16:44;20.50;40.80
13115;DHT22;6623;52.120;8.660;2024-03-07T13:19:10;20.50;40.70
13115;DHT22;6623;52.120;8.660;2024-03-07T13:21:40;20.60;40.60
13115;DHT22;6623;52.120;8.660;2024-03-07T13:24:06;20.60;40.50
13115;DHT22;6623;52.120;8.660;2024-03-07T13:26:33;20.70;40.50
13115;DHT22;6623;52.120;8.660;2024-03-07T13:28:59;20.70;40.40
13115;DHT22;6623;52.120;8.660;2024-03-07T13:31:27;20.80;40.40
13115;DHT22;6623;52.120;8.660;2024-03-07T13:33:53;20.80;40.40
13115;DHT22;6623;52.120;8.660;2024-03-07T13:36:20;20.90;40.40
13115;DHT22;6623;52.120;8.660;2024-03-07T13:38:49;21.00;40.30
13115;DHT22;6623;52.120;8.660;2024-03-07T13:41:20;21.00;40.20
13115;DHT22;6623;52.120;8.660;2024-03-07T13:43:46;21.00;40.10
13115;DHT22;6623;52.120;8.660;2024-03-07T13:46:11;21.10;40.10
13115;DHT22;6623;52.120;8.660;2024-03-07T13:48:41;21.10;40.00
13115;DHT22;6623;52.120;8.660;2024-03-07T13:51:08;21.20;40.00
13115;DHT22;6623;52.120;8.660;2024-03-07T13:53:34;21.20;39.90
13115;DHT22;6623;52.120;8.660;2024-03-07T14:01:39;21.20;39.80
13115;DHT22;6623;52.120;8.660;2024-03-07T14:10:40;21.00;39.90
13115;DHT22;6623;52.120;8.660;2024-03-07T14:16:42;20.90;40.00
13115;DHT22;6623;52.120;8.660;2024-03-07T14:25:43;20.70;40.20
13115;DHT22;6623;52.120;8.660;2024-03-07T14:28:42;20.60;40.20
13115;DHT22;6623;52.120;8.660;2024-03-07T14:31:13;20.50;40.20
13115;DHT22;6623;52.120;8.660;2024-03-07T14:34:04;20.50;40.40
13115;DHT22;6623;52.120;8.660;2024-03-07T14:36:43;20.50;40.50
13115;DHT22;6623;52.120;8.660;2024-03-07T14:39:15;20.40;40.50
13115;DHT22;6623;52.120;8.660;2024-03-07T14:41:56;20.30;40.50
13115;DHT22;6623;52.120;8.660;2024-03-07T14:44:24;20.30;40.60
13115;DHT22;6623;52.120;8.660;2024-03-07T14:46:55;20.30;40.70
13115;DHT22;6623;52.120;8.660;2024-03-07T14:49:22;20.20;40.70
13115;DHT22;6623;52.120;8.660;2024-03-07T14:51:48;20.20;40.70
13115;DHT22;6623;52.120;8.660;2024-03-07T14:54:16;20.20;41.50
13115;DHT22;6623;52.120;8.660;2024-03-07T14:56:41;20.20;40.90
13115;DHT22;6623;52.120;8.660;2024-03-07T14:59:07;20.20;40.90
13115;DHT22;6623;52.120;8.660;2024-03-07T15:01:32;20.20;40.90
13115;DHT22;6623;52.120;8.660;2024-03-07T15:04:01;20.20;41.60
13115;DHT22;6623;52.120;8.660;2024-03-07T15:06:29;20.20;40.90
13115;DHT22;6623;52.120;8.660;2024-03-07T15:08:57;20.30;40.90
13115;DHT22;6623;52.120;8.660;2024-03-07T15:11:36;20.30;40.90
13115;DHT22;6623;52.120;8.660;2024-03-07T15:14:03;20.40;40.90
13115;DHT22;6623;52.120;8.660;2024-03-07T15:16:30;20.40;40.80
13115;DHT22;6623;52.120;8.660;2024-03-07T15:19:06;20.50;40.80
13115;DHT22;6623;52.120;8.660;2024-03-07T15:21:33;20.50;40.70
13115;DHT22;6623;52.120;8.660;2024-03-07T15:23:59;20.60;40.70
13115;DHT22;6623;52.120;8.660;2024-03-07T15:26:28;20.60;40.60
13115;DHT22;6623;52.120;8.660;2024-03-07T15:28:54;20.70;40.50
13115;DHT22;6623;52.120;8.660;2024-03-07T15:31:22;20.70;40.50
13115;DHT22;6623;52.120;8.660;2024-03-07T15:33:49;20.80;40.50
13115;DHT22;6623;52.120;8.660;2024-03-07T15:36:17;20.80;40.50
13115;DHT22;6623;52.120;8.660;2024-03-07T15:38:43;20.80;40.50
13115;DHT22;6623;52.120;8.660;2024-03-07T15:41:08;20.80;40.50
13115;DHT22;6623;52.120;8.660;2024-03-07T15:43:40;20.90;40.40
13115;DHT22;6623;52.120;8.660;2024-03-07T15:46:08;20.90;40.50
13115;DHT22;6623;52.120;8.660;2024-03-07T15:48:36;21.00;40.50
13115;DHT22;6623;52.120;8.660;2024-03-07T15:51:02;21.00;40.50
13115;DHT22;6623;52.120;8.660;2024-03-07T15:53:29;21.10;40.30
13115;DHT22;6623;52.120;8.660;2024-03-07T15:55:54;21.10;40.30
13115;DHT22;6623;52.120;8.660;2024-03-07T15:58:20;21.10;40.20
13115;DHT22;6623;52.120;8.660;2024-03-07T16:00:46;21.20;40.10
13115;DHT22;6623;52.120;8.660;2024-03-07T16:03:12;21.20;40.10
13115;DHT22;6623;52.120;8.660;2024-03-07T16:05:40;21.20;40.00
13115;DHT22;6623;52.120;8.660;2024-03-07T16:08:08;21.20;39.90
13115;DHT22;6623;52.120;8.660;2024-03-07T16:10:42;21.30;39.90
13115;DHT22;6623;52.120;8.660;2024-03-07T16:13:10;21.30;39.90
13115;DHT22;6623;52.120;8.660;2024-03-07T16:15:38;21.30;39.80
13115;DHT22;6623;52.120;8.660;2024-03-07T16:18:04;21.40;40.50
13115;DHT22;6623;52.120;8.660;2024-03-07T16:20:32;21.40;39.80